sensor_id;sensor_type;location;lat;lon;timestamp;P1;durP1;ratioP1;P2;durP2;ratioP2
359;SDS011;168;48.872;9.226;2023-12-14T00:02:05;4.83;;;3.60;;
359;SDS011;168;48.872;9.226;2023-12-14T00:04:32;5.43;;;3.50;;
359;SDS011;168;48.872;9.226;2023-12-14T00:06:59;3.97;;;3.57;;
359;SDS011;168;48.872;9.226;2023-12-14T00:09:27;4.50;;;3.50;;
359;SDS011;168;48.872;9.226;2023-12-14T00:11:54;5.13;;;3.53;;
359;SDS011;168;48.872;9.226;2023-12-14T00:14:21;6.00;;;3.40;;
359;SDS011;168;48.872;9.226;2023-12-14T00:16:49;5.23;;;4.03;;
359;SDS011;168;48.872;9.226;2023-12-14T00:19:17;5.00;;;3.80;;
359;SDS011;168;48.872;9.226;2023-12-14T00:21:45;5.33;;;3.47;;
359;SDS011;168;48.872;9.226;2023-12-14T00:24:12;4.53;;;3.60;;
359;SDS011;168;48.872;9.226;2023-12-14T00:26:39;4.13;;;3.73;;
359;SDS011;168;48.872;9.226;2023-12-14T00:29:07;6.03;;;4.03;;
359;SDS011;168;48.872;9.226;2023-12-14T00:31:34;4.20;;;3.80;;
359;SDS011;168;48.872;9.226;2023-12-14T00:34:01;4.70;;;4.20;;
359;SDS011;168;48.872;9.226;2023-12-14T00:36:30;4.50;;;3.80;;
359;SDS011;168;48.872;9.226;2023-12-14T00:38:58;3.93;;;3.27;;
359;SDS011;168;48.872;9.226;2023-12-14T00:41:28;5.03;;;4.30;;
359;SDS011;168;48.872;9.226;2023-12-14T00:43:55;3.90;;;3.47;;
359;SDS011;168;48.872;9.226;2023-12-14T00:46:23;5.47;;;4.20;;
359;SDS011;168;48.872;9.226;2023-12-14T00:48:50;4.40;;;3.63;;
359;SDS011;168;48.872;9.226;2023-12-14T00:51:17;5.17;;;3.63;;
359;SDS011;168;48.872;9.226;2023-12-14T00:53:46;3.77;;;3.37;;
359;SDS011;168;48.872;9.226;2023-12-14T00:56:13;4.70;;;3.67;;
359;SDS011;168;48.872;9.226;2023-12-14T00:58:41;4.50;;;3.70;;
359;SDS011;168;48.872;9.226;2023-12-14T01:01:08;4.17;;;3.63;;
359;SDS011;168;48.872;9.226;2023-12-14T01:03:35;5.20;;;4.10;;
359;SDS011;168;48.872;9.226;2023-12-14T01:06:03;4.60;;;3.83;;
359;SDS011;168;48.872;9.226;2023-12-14T01:08:30;4.50;;;4.00;;
359;SDS011;168;48.872;9.226;2023-12-14T01:10:59;4.60;;;3.67;;
359;SDS011;168;48.872;9.226;2023-12-14T01:13:26;4.57;;;3.53;;
359;SDS011;168;48.872;9.226;2023-12-14T01:15:53;5.80;;;4.23;;
359;SDS011;168;48.872;9.226;2023-12-14T01:18:21;5.90;;;4.00;;
359;SDS011;168;48.872;9.226;2023-12-14T01:20:48;4.40;;;4.00;;
359;SDS011;168;48.872;9.226;2023-12-14T01:23:15;4.80;;;4.30;;
359;SDS011;168;48.872;9.226;2023-12-14T01:25:43;5.27;;;4.00;;
359;SDS011;168;48.872;9.226;2023-12-14T01:28:12;4.60;;;4.20;;
359;SDS011;168;48.872;9.226;2023-12-14T01:30:39;6.10;;;4.70;;
359;SDS011;168;48.872;9.226;2023-12-14T01:33:07;5.10;;;4.60;;
359;SDS011;168;48.872;9.226;2023-12-14T01:35:34;4.73;;;4.23;;
359;SDS011;168;48.872;9.226;2023-12-14T01:38:01;6.00;;;4.30;;
359;SDS011;168;48.872;9.226;2023-12-14T01:40:28;6.30;;;4.60;;
359;SDS011;168;48.872;9.226;2023-12-14T01:43:05;6.40;;;4.80;;
359;SDS011;168;48.872;9.226;2023-12-14T01:45:35;4.43;;;3.93;;
359;SDS011;168;48.872;9.226;2023-12-14T01:48:02;5.17;;;4.47;;
359;SDS011;168;48.872;9.226;2023-12-14T01:50:30;4.80;;;4.30;;
359;SDS011;168;48.872;9.226;2023-12-14T01:52:58;6.60;;;4.70;;
359;SDS011;168;48.872;9.226;2023-12-14T01:55:25;4.70;;;4.20;;
359;SDS011;168;48.872;9.226;2023-12-14T01:57:53;4.40;;;4.00;;
359;SDS011;168;48.872;9.226;2023-12-14T02:00:21;5.63;;;4.00;;
359;SDS011;168;48.872;9.226;2023-12-14T02:02:56;4.70;;;4.20;;
359;SDS011;168;48.872;9.226;2023-12-14T02:05:23;5.07;;;4.57;;
359;SDS011;168;48.872;9.226;2023-12-14T02:07:51;5.30;;;4.30;;
359;SDS011;168;48.872;9.226;2023-12-14T02:10:18;4.80;;;4.33;;
359;SDS011;168;48.872;9.226;2023-12-14T02:12:45;6.10;;;4.10;;
359;SDS011;168;48.872;9.226;2023-12-14T02:15:13;5.77;;;4.87;;
359;SDS011;168;48.872;9.226;2023-12-14T02:17:40;4.20;;;3.60;;
359;SDS011;168;48.872;9.226;2023-12-14T02:20:09;4.80;;;4.37;;
359;SDS011;168;48.872;9.226;2023-12-14T02:22:49;4.30;;;3.90;;
359;SDS011;168;48.872;9.226;2023-12-14T02:25:16;5.03;;;4.53;;
359;SDS011;168;48.872;9.226;2023-12-14T02:27:44;7.50;;;5.00;;
359;SDS011;168;48.872;9.226;2023-12-14T02:30:12;4.90;;;4.10;;
359;SDS011;168;48.872;9.226;2023-12-14T02:32:40;4.80;;;4.30;;
359;SDS011;168;48.872;9.226;2023-12-14T02:35:08;5.83;;;4.37;;
359;SDS011;168;48.872;9.226;2023-12-14T02:37:35;5.43;;;4.33;;
359;SDS011;168;48.872;9.226;2023-12-14T02:40:07;5.90;;;4.40;;
359;SDS011;168;48.872;9.226;2023-12-14T02:42:35;5.60;;;4.60;;
359;SDS011;168;48.872;9.226;2023-12-14T02:45:03;5.17;;;4.17;;
359;SDS011;168;48.872;9.226;2023-12-14T02:47:31;5.03;;;3.63;;
359;SDS011;168;48.872;9.226;2023-12-14T02:49:58;7.23;;;4.37;;
359;SDS011;168;48.872;9.226;2023-12-14T02:52:26;4.60;;;4.03;;
359;SDS011;168;48.872;9.226;2023-12-14T02:54:53;4.87;;;4.37;;
359;SDS011;168;48.872;9.226;2023-12-14T02:57:22;5.43;;;4.00;;
359;SDS011;168;48.872;9.226;2023-12-14T02:59:49;5.70;;;4.20;;
359;SDS011;168;48.872;9.226;2023-12-14T03:02:16;4.03;;;3.63;;
359;SDS011;168;48.872;9.226;2023-12-14T03:04:44;3.90;;;3.27;;
359;SDS011;168;48.872;9.226;2023-12-14T03:07:11;3.00;;;2.57;;
359;SDS011;168;48.872;9.226;2023-12-14T03:09:39;4.50;;;3.00;;
359;SDS011;168;48.872;9.226;2023-12-14T03:12:09;5.30;;;2.83;;
359;SDS011;168;48.872;9.226;2023-12-14T03:14:38;2.83;;;2.43;;
359;SDS011;168;48.872;9.226;2023-12-14T03:17:06;4.37;;;2.73;;
359;SDS011;168;48.872;9.226;2023-12-14T03:19:38;2.97;;;2.60;;
359;SDS011;168;48.872;9.226;2023-12-14T03:22:06;4.80;;;3.00;;
359;SDS011;168;48.872;9.226;2023-12-14T03:24:34;3.10;;;2.80;;
359;SDS011;168;48.872;9.226;2023-12-14T03:27:02;3.87;;;2.80;;
359;SDS011;168;48.872;9.226;2023-12-14T03:29:29;4.50;;;2.80;;
359;SDS011;168;48.872;9.226;2023-12-14T03:31:58;3.00;;;2.43;;
359;SDS011;168;48.872;9.226;2023-12-14T03:34:26;6.53;;;2.63;;
359;SDS011;168;48.872;9.226;2023-12-14T03:36:53;3.27;;;2.77;;
359;SDS011;168;48.872;9.226;2023-12-14T03:39:21;2.90;;;2.33;;
359;SDS011;168;48.872;9.226;2023-12-14T03:41:48;4.97;;;2.83;;
359;SDS011;168;48.872;9.226;2023-12-14T03:44:15;4.57;;;2.53;;
359;SDS011;168;48.872;9.226;2023-12-14T03:46:42;2.77;;;2.50;;
359;SDS011;168;48.872;9.226;2023-12-14T03:49:11;3.50;;;2.77;;
359;SDS011;168;48.872;9.226;2023-12-14T03:51:39;4.43;;;3.00;;
359;SDS011;168;48.872;9.226;2023-12-14T03:54:07;3.13;;;2.20;;
359;SDS011;168;48.872;9.226;2023-12-14T03:56:34;3.50;;;2.90;;
359;SDS011;168;48.872;9.226;2023-12-14T03:59:02;3.73;;;2.97;;
359;SDS011;168;48.872;9.226;2023-12-14T04:01:30;3.03;;;2.70;;
359;SDS011;168;48.872;9.226;2023-12-14T04:03:59;3.27;;;2.97;;
359;SDS011;168;48.872;9.226;2023-12-14T04:06:27;3.13;;;2.80;;
359;SDS011;168;48.872;9.226;2023-12-14T04:08:55;2.97;;;2.50;;
359;SDS011;168;48.872;9.226;2023-12-14T04:11:22;4.40;;;3.70;;
359;SDS011;168;48.872;9.226;2023-12-14T04:13:49;3.30;;;2.90;;
359;SDS011;168;48.872;9.226;2023-12-14T04:16:19;3.73;;;2.80;;
359;SDS011;168;48.872;9.226;2023-12-14T04:18:46;3.97;;;2.67;;
359;SDS011;168;48.872;9.226;2023-12-14T04:21:14;3.60;;;2.90;;
359;SDS011;168;48.872;9.226;2023-12-14T04:23:42;3.60;;;3.23;;
359;SDS011;168;48.872;9.226;2023-12-14T04:26:11;4.03;;;3.20;;
359;SDS011;168;48.872;9.226;2023-12-14T04:28:39;3.80;;;3.00;;
359;SDS011;168;48.872;9.226;2023-12-14T04:31:09;5.00;;;3.10;;
359;SDS011;168;48.872;9.226;2023-12-14T04:33:37;4.47;;;3.03;;
359;SDS011;168;48.872;9.226;2023-12-14T04:36:05;6.90;;;3.80;;
359;SDS011;168;48.872;9.226;2023-12-14T04:38:33;3.97;;;3.57;;
359;SDS011;168;48.872;9.226;2023-12-14T04:41:02;3.50;;;3.20;;
359;SDS011;168;48.872;9.226;2023-12-14T04:43:29;4.27;;;2.90;;
359;SDS011;168;48.872;9.226;2023-12-14T04:45:57;3.47;;;3.00;;
359;SDS011;168;48.872;9.226;2023-12-14T04:48:25;4.17;;;3.20;;
359;SDS011;168;48.872;9.226;2023-12-14T04:50:52;4.70;;;2.87;;
359;SDS011;168;48.872;9.226;2023-12-14T04:53:19;5.83;;;2.83;;
359;SDS011;168;48.872;9.226;2023-12-14T04:55:47;3.67;;;3.10;;
359;SDS011;168;48.872;9.226;2023-12-14T04:58:16;4.10;;;3.07;;
359;SDS011;168;48.872;9.226;2023-12-14T05:00:43;3.27;;;2.80;;
359;SDS011;168;48.872;9.226;2023-12-14T05:03:10;6.90;;;2.90;;
359;SDS011;168;48.872;9.226;2023-12-14T05:05:38;3.27;;;2.93;;
359;SDS011;168;48.872;9.226;2023-12-14T05:08:05;4.07;;;2.60;;
359;SDS011;168;48.872;9.226;2023-12-14T05:10:32;4.13;;;3.40;;
359;SDS011;168;48.872;9.226;2023-12-14T05:13:00;4.17;;;3.00;;
359;SDS011;168;48.872;9.226;2023-12-14T05:15:28;4.83;;;3.30;;
359;SDS011;168;48.872;9.226;2023-12-14T05:17:56;3.20;;;2.90;;
359;SDS011;168;48.872;9.226;2023-12-14T05:20:23;3.70;;;3.10;;
359;SDS011;168;48.872;9.226;2023-12-14T05:22:51;3.63;;;3.33;;
359;SDS011;168;48.872;9.226;2023-12-14T05:25:18;4.70;;;3.20;;
359;SDS011;168;48.872;9.226;2023-12-14T05:27:46;3.50;;;3.20;;
359;SDS011;168;48.872;9.226;2023-12-14T05:30:14;3.73;;;3.33;;
359;SDS011;168;48.872;9.226;2023-12-14T05:32:42;4.10;;;3.70;;
359;SDS011;168;48.872;9.226;2023-12-14T05:35:10;4.20;;;3.40;;
359;SDS011;168;48.872;9.226;2023-12-14T05:37:38;5.63;;;3.90;;
359;SDS011;168;48.872;9.226;2023-12-14T05:40:06;7.53;;;4.77;;
359;SDS011;168;48.872;9.226;2023-12-14T05:42:35;4.77;;;4.37;;
359;SDS011;168;48.872;9.226;2023-12-14T05:45:11;4.70;;;4.20;;
359;SDS011;168;48.872;9.226;2023-12-14T05:51:29;5.47;;;4.97;;
359;SDS011;168;48.872;9.226;2023-12-14T05:54:00;6.60;;;5.20;;
359;SDS011;168;48.872;9.226;2023-12-14T05:56:32;6.63;;;5.63;;
359;SDS011;168;48.872;9.226;2023-12-14T05:58:59;6.20;;;5.00;;
359;SDS011;168;48.872;9.226;2023-12-14T06:01:27;7.97;;;6.17;;
359;SDS011;168;48.872;9.226;2023-12-14T06:03:54;8.10;;;5.97;;
359;SDS011;168;48.872;9.226;2023-12-14T06:06:21;7.30;;;6.60;;
359;SDS011;168;48.872;9.226;2023-12-14T06:08:50;6.83;;;6.10;;
359;SDS011;168;48.872;9.226;2023-12-14T06:11:18;6.00;;;5.07;;
359;SDS011;168;48.872;9.226;2023-12-14T06:13:45;5.97;;;5.40;;
359;SDS011;168;48.872;9.226;2023-12-14T06:16:13;5.80;;;5.20;;
359;SDS011;168;48.872;9.226;2023-12-14T06:18:40;6.90;;;5.23;;
359;SDS011;168;48.872;9.226;2023-12-14T06:21:10;6.63;;;5.30;;
359;SDS011;168;48.872;9.226;2023-12-14T06:23:38;8.40;;;6.40;;
359;SDS011;168;48.872;9.226;2023-12-14T06:26:07;6.50;;;5.70;;
359;SDS011;168;48.872;9.226;2023-12-14T06:28:34;7.63;;;6.80;;
359;SDS011;168;48.872;9.226;2023-12-14T06:31:02;7.83;;;5.73;;
359;SDS011;168;48.872;9.226;2023-12-14T06:33:30;7.13;;;6.43;;
359;SDS011;168;48.872;9.226;2023-12-14T06:35:58;7.73;;;6.87;;
359;SDS011;168;48.872;9.226;2023-12-14T06:38:29;8.97;;;7.33;;
359;SDS011;168;48.872;9.226;2023-12-14T06:40:56;8.33;;;7.47;;
359;SDS011;168;48.872;9.226;2023-12-14T06:43:25;7.70;;;6.07;;
359;SDS011;168;48.872;9.226;2023-12-14T06:45:52;6.70;;;5.73;;
359;SDS011;168;48.872;9.226;2023-12-14T06:48:20;7.43;;;6.73;;
359;SDS011;168;48.872;9.226;2023-12-14T06:50:47;9.17;;;6.90;;
359;SDS011;168;48.872;9.226;2023-12-14T06:53:14;6.80;;;5.80;;
359;SDS011;168;48.872;9.226;2023-12-14T06:55:42;8.77;;;6.60;;
359;SDS011;168;48.872;9.226;2023-12-14T06:58:09;7.03;;;6.03;;
359;SDS011;168;48.872;9.226;2023-12-14T07:00:38;12.37;;;7.70;;
359;SDS011;168;48.872;9.226;2023-12-14T07:03:05;8.23;;;7.37;;
359;SDS011;168;48.872;9.226;2023-12-14T07:05:33;9.03;;;7.37;;
359;SDS011;168;48.872;9.226;2023-12-14T07:08:00;11.03;;;7.87;;
359;SDS011;168;48.872;9.226;2023-12-14T07:10:27;10.17;;;8.43;;
359;SDS011;168;48.872;9.226;2023-12-14T07:12:55;10.30;;;8.77;;
359;SDS011;168;48.872;9.226;2023-12-14T07:15:22;13.77;;;8.87;;
359;SDS011;168;48.872;9.226;2023-12-14T07:17:51;11.50;;;8.97;;
359;SDS011;168;48.872;9.226;2023-12-14T07:20:19;12.37;;;9.20;;
359;SDS011;168;48.872;9.226;2023-12-14T07:22:47;11.50;;;9.37;;
359;SDS011;168;48.872;9.226;2023-12-14T07:25:14;13.70;;;10.50;;
359;SDS011;168;48.872;9.226;2023-12-14T07:27:41;14.37;;;11.20;;
359;SDS011;168;48.872;9.226;2023-12-14T07:30:09;12.47;;;9.80;;
359;SDS011;168;48.872;9.226;2023-12-14T07:32:37;12.93;;;10.47;;
359;SDS011;168;48.872;9.226;2023-12-14T07:35:07;14.83;;;11.17;;
359;SDS011;168;48.872;9.226;2023-12-14T07:37:35;13.20;;;10.47;;
359;SDS011;168;48.872;9.226;2023-12-14T07:40:02;12.50;;;10.13;;
359;SDS011;168;48.872;9.226;2023-12-14T07:42:30;16.23;;;12.50;;
359;SDS011;168;48.872;9.226;2023-12-14T07:44:57;12.70;;;10.43;;
359;SDS011;168;48.872;9.226;2023-12-14T07:47:25;13.77;;;11.20;;
359;SDS011;168;48.872;9.226;2023-12-14T07:49:52;14.77;;;11.63;;
359;SDS011;168;48.872;9.226;2023-12-14T07:52:21;15.57;;;10.97;;
359;SDS011;168;48.872;9.226;2023-12-14T07:54:48;11.60;;;10.17;;
359;SDS011;168;48.872;9.226;2023-12-14T07:57:16;11.60;;;9.70;;
359;SDS011;168;48.872;9.226;2023-12-14T07:59:43;12.93;;;8.97;;
359;SDS011;168;48.872;9.226;2023-12-14T08:02:11;9.93;;;8.70;;
359;SDS011;168;48.872;9.226;2023-12-14T08:04:39;10.07;;;8.00;;
359;SDS011;168;48.872;9.226;2023-12-14T08:07:06;9.27;;;8.03;;
359;SDS011;168;48.872;9.226;2023-12-14T08:09:37;9.33;;;7.67;;
359;SDS011;168;48.872;9.226;2023-12-14T08:12:04;12.53;;;10.20;;
359;SDS011;168;48.872;9.226;2023-12-14T08:14:32;12.90;;;8.90;;
359;SDS011;168;48.872;9.226;2023-12-14T08:17:00;12.47;;;10.53;;
359;SDS011;168;48.872;9.226;2023-12-14T08:19:27;10.07;;;8.70;;
359;SDS011;168;48.872;9.226;2023-12-14T08:21:55;11.77;;;10.60;;
359;SDS011;168;48.872;9.226;2023-12-14T08:24:22;11.20;;;9.60;;
359;SDS011;168;48.872;9.226;2023-12-14T08:26:51;11.60;;;9.33;;
359;SDS011;168;48.872;9.226;2023-12-14T08:29:18;11.60;;;8.50;;
359;SDS011;168;48.872;9.226;2023-12-14T08:31:45;10.63;;;9.53;;
359;SDS011;168;48.872;9.226;2023-12-14T08:34:13;11.60;;;9.20;;
359;SDS011;168;48.872;9.226;2023-12-14T08:36:40;10.50;;;9.10;;
359;SDS011;168;48.872;9.226;2023-12-14T08:39:07;12.07;;;10.30;;
359;SDS011;168;48.872;9.226;2023-12-14T08:41:35;13.23;;;10.90;;
359;SDS011;168;48.872;9.226;2023-12-14T08:44:04;13.33;;;11.40;;
359;SDS011;168;48.872;9.226;2023-12-14T08:46:38;12.33;;;10.90;;
359;SDS011;168;48.872;9.226;2023-12-14T08:49:05;12.53;;;10.90;;
359;SDS011;168;48.872;9.226;2023-12-14T08:51:32;12.57;;;11.27;;
359;SDS011;168;48.872;9.226;2023-12-14T08:54:00;14.50;;;10.73;;
359;SDS011;168;48.872;9.226;2023-12-14T08:56:27;13.87;;;11.17;;
359;SDS011;168;48.872;9.226;2023-12-14T08:58:55;15.83;;;12.17;;
359;SDS011;168;48.872;9.226;2023-12-14T09:01:24;13.97;;;11.50;;
359;SDS011;168;48.872;9.226;2023-12-14T09:03:51;16.47;;;12.20;;
359;SDS011;168;48.872;9.226;2023-12-14T09:06:19;14.90;;;12.03;;
359;SDS011;168;48.872;9.226;2023-12-14T09:08:46;14.10;;;12.60;;
359;SDS011;168;48.872;9.226;2023-12-14T09:11:14;15.33;;;12.33;;
359;SDS011;168;48.872;9.226;2023-12-14T09:13:42;15.13;;;12.00;;
359;SDS011;168;48.872;9.226;2023-12-14T09:16:11;15.47;;;12.00;;
359;SDS011;168;48.872;9.226;2023-12-14T09:18:39;15.33;;;13.07;;
359;SDS011;168;48.872;9.226;2023-12-14T09:21:07;14.63;;;12.77;;
359;SDS011;168;48.872;9.226;2023-12-14T09:23:35;17.23;;;13.33;;
359;SDS011;168;48.872;9.226;2023-12-14T09:26:02;17.47;;;13.53;;
359;SDS011;168;48.872;9.226;2023-12-14T09:28:30;15.27;;;12.90;;
359;SDS011;168;48.872;9.226;2023-12-14T09:30:57;19.80;;;14.90;;
359;SDS011;168;48.872;9.226;2023-12-14T09:33:24;15.30;;;11.97;;
359;SDS011;168;48.872;9.226;2023-12-14T09:35:53;16.77;;;13.30;;
359;SDS011;168;48.872;9.226;2023-12-14T09:38:20;18.07;;;13.37;;
359;SDS011;168;48.872;9.226;2023-12-14T09:40:47;16.80;;;14.23;;
359;SDS011;168;48.872;9.226;2023-12-14T09:43:15;16.33;;;13.13;;
359;SDS011;168;48.872;9.226;2023-12-14T09:45:42;15.07;;;11.97;;
359;SDS011;168;48.872;9.226;2023-12-14T09:48:11;15.33;;;12.67;;
359;SDS011;168;48.872;9.226;2023-12-14T09:50:39;16.67;;;12.40;;
359;SDS011;168;48.872;9.226;2023-12-14T09:53:08;14.43;;;11.80;;
359;SDS011;168;48.872;9.226;2023-12-14T09:55:36;16.30;;;13.40;;
359;SDS011;168;48.872;9.226;2023-12-14T10:00:33;14.77;;;11.90;;
359;SDS011;168;48.872;9.226;2023-12-14T10:05:47;14.93;;;12.20;;
359;SDS011;168;48.872;9.226;2023-12-14T10:08:16;17.93;;;13.57;;
359;SDS011;168;48.872;9.226;2023-12-14T10:10:44;15.30;;;12.80;;
359;SDS011;168;48.872;9.226;2023-12-14T10:13:14;16.60;;;13.10;;
359;SDS011;168;48.872;9.226;2023-12-14T10:15:42;16.73;;;12.00;;
359;SDS011;168;48.872;9.226;2023-12-14T10:18:09;12.70;;;10.90;;
359;SDS011;168;48.872;9.226;2023-12-14T10:20:37;13.33;;;10.90;;
359;SDS011;168;48.872;9.226;2023-12-14T10:23:06;13.87;;;10.47;;
359;SDS011;168;48.872;9.226;2023-12-14T10:25:36;12.37;;;10.57;;
359;SDS011;168;48.872;9.226;2023-12-14T10:28:03;15.13;;;10.97;;
359;SDS011;168;48.872;9.226;2023-12-14T10:30:31;12.50;;;10.00;;
359;SDS011;168;48.872;9.226;2023-12-14T10:32:58;15.90;;;12.53;;
359;SDS011;168;48.872;9.226;2023-12-14T10:35:25;17.13;;;12.03;;
359;SDS011;168;48.872;9.226;2023-12-14T10:37:53;14.20;;;10.60;;
359;SDS011;168;48.872;9.226;2023-12-14T10:40:22;17.20;;;12.10;;
359;SDS011;168;48.872;9.226;2023-12-14T10:42:52;17.40;;;12.77;;
359;SDS011;168;48.872;9.226;2023-12-14T10:45:21;16.03;;;11.10;;
359;SDS011;168;48.872;9.226;2023-12-14T10:47:53;14.63;;;11.93;;
359;SDS011;168;48.872;9.226;2023-12-14T10:50:21;16.00;;;12.70;;
359;SDS011;168;48.872;9.226;2023-12-14T10:52:48;15.17;;;11.40;;
359;SDS011;168;48.872;9.226;2023-12-14T10:55:18;12.20;;;10.13;;
359;SDS011;168;48.872;9.226;2023-12-14T10:57:51;14.77;;;11.50;;
359;SDS011;168;48.872;9.226;2023-12-14T11:00:19;13.17;;;10.50;;
359;SDS011;168;48.872;9.226;2023-12-14T11:02:47;12.40;;;10.30;;
359;SDS011;168;48.872;9.226;2023-12-14T11:05:15;11.53;;;9.90;;
359;SDS011;168;48.872;9.226;2023-12-14T11:07:49;12.70;;;9.27;;
359;SDS011;168;48.872;9.226;2023-12-14T11:10:20;10.70;;;9.57;;
359;SDS011;168;48.872;9.226;2023-12-14T11:12:56;13.20;;;9.50;;
359;SDS011;168;48.872;9.226;2023-12-14T11:15:27;11.30;;;10.03;;
359;SDS011;168;48.872;9.226;2023-12-14T11:20:53;13.60;;;10.13;;
359;SDS011;168;48.872;9.226;2023-12-14T11:23:32;12.13;;;9.10;;
359;SDS011;168;48.872;9.226;2023-12-14T11:26:02;13.53;;;9.50;;
359;SDS011;168;48.872;9.226;2023-12-14T11:28:34;11.33;;;9.53;;
359;SDS011;168;48.872;9.226;2023-12-14T11:31:03;13.70;;;10.60;;
359;SDS011;168;48.872;9.226;2023-12-14T11:33:32;16.30;;;10.63;;
359;SDS011;168;48.872;9.226;2023-12-14T11:36:01;12.13;;;10.23;;
359;SDS011;168;48.872;9.226;2023-12-14T11:38:29;10.83;;;8.77;;
359;SDS011;168;48.872;9.226;2023-12-14T11:40:58;15.90;;;10.20;;
359;SDS011;168;48.872;9.226;2023-12-14T11:43:25;12.50;;;10.13;;
359;SDS011;168;48.872;9.226;2023-12-14T11:45:54;12.30;;;10.30;;
359;SDS011;168;48.872;9.226;2023-12-14T11:48:22;12.33;;;10.00;;
359;SDS011;168;48.872;9.226;2023-12-14T11:50:49;16.00;;;10.40;;
359;SDS011;168;48.872;9.226;2023-12-14T11:53:18;11.20;;;9.17;;
359;SDS011;168;48.872;9.226;2023-12-14T11:55:45;12.00;;;10.70;;
359;SDS011;168;48.872;9.226;2023-12-14T11:58:13;12.30;;;9.27;;
359;SDS011;168;48.872;9.226;2023-12-14T12:00:41;12.53;;;9.10;;
359;SDS011;168;48.872;9.226;2023-12-14T12:03:11;11.00;;;9.10;;
359;SDS011;168;48.872;9.226;2023-12-14T12:05:41;10.53;;;9.40;;
359;SDS011;168;48.872;9.226;2023-12-14T12:08:09;12.20;;;9.53;;
359;SDS011;168;48.872;9.226;2023-12-14T12:10:37;12.47;;;11.07;;
359;SDS011;168;48.872;9.226;2023-12-14T12:13:06;11.70;;;10.10;;
359;SDS011;168;48.872;9.226;2023-12-14T12:15:34;11.80;;;9.50;;
359;SDS011;168;48.872;9.226;2023-12-14T12:18:03;11.20;;;8.83;;
359;SDS011;168;48.872;9.226;2023-12-14T12:20:33;12.97;;;9.07;;
359;SDS011;168;48.872;9.226;2023-12-14T12:23:01;13.47;;;8.73;;
359;SDS011;168;48.872;9.226;2023-12-14T12:25:29;11.77;;;9.53;;
359;SDS011;168;48.872;9.226;2023-12-14T12:27:57;9.73;;;8.07;;
359;SDS011;168;48.872;9.226;2023-12-14T12:30:24;9.07;;;8.17;;
359;SDS011;168;48.872;9.226;2023-12-14T12:32:52;10.73;;;8.63;;
359;SDS011;168;48.872;9.226;2023-12-14T12:35:21;9.47;;;7.93;;
359;SDS011;168;48.872;9.226;2023-12-14T12:37:51;7.50;;;6.03;;
359;SDS011;168;48.872;9.226;2023-12-14T12:40:20;7.33;;;5.97;;
359;SDS011;168;48.872;9.226;2023-12-14T12:42:47;9.00;;;5.97;;
359;SDS011;168;48.872;9.226;2023-12-14T12:45:16;5.50;;;4.40;;
359;SDS011;168;48.872;9.226;2023-12-14T12:47:44;6.60;;;5.33;;
359;SDS011;168;48.872;9.226;2023-12-14T12:50:11;6.50;;;5.20;;
359;SDS011;168;48.872;9.226;2023-12-14T12:52:39;7.07;;;4.87;;
359;SDS011;168;48.872;9.226;2023-12-14T12:55:09;5.97;;;4.80;;
359;SDS011;168;48.872;9.226;2023-12-14T12:57:36;8.07;;;5.40;;
359;SDS011;168;48.872;9.226;2023-12-14T13:00:04;7.20;;;6.00;;
359;SDS011;168;48.872;9.226;2023-12-14T13:02:36;9.90;;;6.67;;
359;SDS011;168;48.872;9.226;2023-12-14T13:05:05;8.00;;;6.20;;
359;SDS011;168;48.872;9.226;2023-12-14T13:07:33;7.47;;;6.00;;
359;SDS011;168;48.872;9.226;2023-12-14T13:10:00;7.93;;;5.93;;
359;SDS011;168;48.872;9.226;2023-12-14T13:12:29;9.50;;;7.37;;
359;SDS011;168;48.872;9.226;2023-12-14T13:14:56;10.77;;;7.73;;
359;SDS011;168;48.872;9.226;2023-12-14T13:17:24;8.73;;;7.57;;
359;SDS011;168;48.872;9.226;2023-12-14T13:19:51;9.53;;;6.40;;
359;SDS011;168;48.872;9.226;2023-12-14T13:22:19;10.23;;;7.73;;
359;SDS011;168;48.872;9.226;2023-12-14T13:24:46;8.47;;;7.43;;
359;SDS011;168;48.872;9.226;2023-12-14T13:27:15;10.00;;;8.27;;
359;SDS011;168;48.872;9.226;2023-12-14T13:29:43;9.13;;;7.97;;
359;SDS011;168;48.872;9.226;2023-12-14T13:32:11;13.03;;;8.97;;
359;SDS011;168;48.872;9.226;2023-12-14T13:34:38;9.70;;;7.70;;
359;SDS011;168;48.872;9.226;2023-12-14T13:37:05;9.97;;;7.43;;
359;SDS011;168;48.872;9.226;2023-12-14T13:39:34;11.23;;;7.23;;
359;SDS011;168;48.872;9.226;2023-12-14T13:42:03;9.00;;;6.70;;
359;SDS011;168;48.872;9.226;2023-12-14T13:44:31;7.43;;;5.03;;
359;SDS011;168;48.872;9.226;2023-12-14T13:47:01;7.03;;;4.73;;
359;SDS011;168;48.872;9.226;2023-12-14T13:49:29;5.73;;;5.13;;
359;SDS011;168;48.872;9.226;2023-12-14T13:51:57;5.00;;;4.20;;
359;SDS011;168;48.872;9.226;2023-12-14T13:54:24;6.37;;;5.30;;
359;SDS011;168;48.872;9.226;2023-12-14T13:56:51;6.10;;;5.17;;
359;SDS011;168;48.872;9.226;2023-12-14T13:59:19;7.43;;;5.20;;
359;SDS011;168;48.872;9.226;2023-12-14T14:01:47;7.13;;;6.07;;
359;SDS011;168;48.872;9.226;2023-12-14T14:04:17;7.93;;;6.17;;
359;SDS011;168;48.872;9.226;2023-12-14T14:06:45;7.20;;;6.50;;
359;SDS011;168;48.872;9.226;2023-12-14T14:09:12;10.13;;;7.03;;
359;SDS011;168;48.872;9.226;2023-12-14T14:11:40;10.97;;;8.97;;
359;SDS011;168;48.872;9.226;2023-12-14T14:14:12;15.13;;;9.73;;
359;SDS011;168;48.872;9.226;2023-12-14T14:16:40;12.17;;;8.70;;
359;SDS011;168;48.872;9.226;2023-12-14T14:19:07;13.20;;;10.00;;
359;SDS011;168;48.872;9.226;2023-12-14T14:21:36;11.70;;;9.70;;
359;SDS011;168;48.872;9.226;2023-12-14T14:24:04;12.50;;;10.70;;
359;SDS011;168;48.872;9.226;2023-12-14T14:26:32;12.20;;;9.43;;
359;SDS011;168;48.872;9.226;2023-12-14T14:28:59;13.50;;;9.77;;
359;SDS011;168;48.872;9.226;2023-12-14T14:31:27;12.20;;;10.10;;
359;SDS011;168;48.872;9.226;2023-12-14T14:33:58;13.50;;;10.30;;
359;SDS011;168;48.872;9.226;2023-12-14T14:36:25;12.27;;;10.33;;
359;SDS011;168;48.872;9.226;2023-12-14T14:38:54;16.07;;;11.83;;
359;SDS011;168;48.872;9.226;2023-12-14T14:41:22;14.70;;;11.50;;
359;SDS011;168;48.872;9.226;2023-12-14T14:43:49;15.30;;;12.37;;
359;SDS011;168;48.872;9.226;2023-12-14T14:46:17;12.13;;;10.83;;
359;SDS011;168;48.872;9.226;2023-12-14T14:48:44;14.70;;;11.30;;
359;SDS011;168;48.872;9.226;2023-12-14T14:51:12;15.03;;;11.37;;
359;SDS011;168;48.872;9.226;2023-12-14T14:53:39;11.90;;;9.40;;
359;SDS011;168;48.872;9.226;2023-12-14T14:56:09;16.87;;;11.60;;
359;SDS011;168;48.872;9.226;2023-12-14T14:58:37;14.27;;;11.30;;
359;SDS011;168;48.872;9.226;2023-12-14T15:01:04;16.40;;;11.97;;
359;SDS011;168;48.872;9.226;2023-12-14T15:03:32;16.77;;;11.87;;
359;SDS011;168;48.872;9.226;2023-12-14T15:05:59;15.37;;;10.93;;
359;SDS011;168;48.872;9.226;2023-12-14T15:08:26;15.23;;;11.60;;
359;SDS011;168;48.872;9.226;2023-12-14T15:10:54;15.33;;;11.90;;
359;SDS011;168;48.872;9.226;2023-12-14T15:13:24;17.13;;;12.07;;
359;SDS011;168;48.872;9.226;2023-12-14T15:15:52;16.80;;;12.87;;
359;SDS011;168;48.872;9.226;2023-12-14T15:18:20;18.37;;;13.73;;
359;SDS011;168;48.872;9.226;2023-12-14T15:20:48;16.60;;;12.87;;
359;SDS011;168;48.872;9.226;2023-12-14T15:23:17;15.90;;;12.70;;
359;SDS011;168;48.872;9.226;2023-12-14T15:25:44;16.30;;;11.27;;
359;SDS011;168;48.872;9.226;2023-12-14T15:28:13;15.13;;;12.20;;
359;SDS011;168;48.872;9.226;2023-12-14T15:30:41;15.73;;;11.60;;
359;SDS011;168;48.872;9.226;2023-12-14T15:33:09;19.33;;;13.60;;
359;SDS011;168;48.872;9.226;2023-12-14T15:35:36;17.80;;;12.37;;
359;SDS011;168;48.872;9.226;2023-12-14T15:38:03;18.70;;;12.80;;
359;SDS011;168;48.872;9.226;2023-12-14T15:40:30;21.27;;;12.67;;
359;SDS011;168;48.872;9.226;2023-12-14T15:42:58;17.53;;;14.40;;
359;SDS011;168;48.872;9.226;2023-12-14T15:45:25;18.53;;;13.83;;
359;SDS011;168;48.872;9.226;2023-12-14T15:47:54;17.07;;;13.57;;
359;SDS011;168;48.872;9.226;2023-12-14T15:50:21;17.90;;;12.97;;
359;SDS011;168;48.872;9.226;2023-12-14T15:52:49;16.43;;;13.40;;